Time;durP1;ratioP1;P1;durP2;ratioP2;P2;SDS_P1;SDS_P2;PMS_P1;PMS_P2;Temp;Humidity;BMP_temperature;BMP_pressure;BME280_temperature;BME280_humidity;BME280_pressure;Samples;Min_cycle;Max_cycle;Signal;HPM_P1;HPM_P2
2021/10/28 00:12:22;;;;;;;12.70;7.80;;;;;;;7.26;73.60;97586.27;115580;1197;29790;-82
2021/10/28 00:14:56;;;;;;;12.80;7.30;;;;;;;7.23;73.93;97590.23;115583;1198;28598;-82
2021/10/28 00:17:43;;;;;;;10.90;6.70;;;;;;;7.23;74.10;97592.39;115690;1185;24764;-81
2021/10/28 00:20:15;;;;;;;12.90;6.70;;;;;;;7.26;74.17;97594.87;115671;1198;26610;-82
2021/10/28 00:22:47;;;;;;;11.90;7.10;;;;;;;7.29;74.04;97594.56;115612;1197;45655;-82
2021/10/28 00:25:17;;;;;;;10.30;7.20;;;;;;;7.33;74.10;97601.99;115624;1197;29865;-82
2021/10/28 00:27:49;;;;;;;;;;;;;;;7.37;73.97;97605.66;115664;1197;30172;-82
2021/10/28 00:30:20;;;;;;;11.00;6.70;;;;;;;7.37;73.73;97601.59;115638;1192;28278;-82
2021/10/28 00:32:51;;;;;;;12.90;6.80;;;;;;;7.34;73.50;97606.02;115625;1197;30087;-83
2021/10/28 00:35:21;;;;;;;;;;;;;;;7.30;73.54;97615.52;115666;1198;29516;-82
2021/10/28 00:37:52;;;;;;;11.30;6.00;;;;;;;7.25;73.39;97619.92;115655;1197;41396;-82
2021/10/28 00:40:23;;;;;;;11.10;5.50;;;;;;;7.25;73.61;97621.11;115635;1198;32536;-81
2021/10/28 00:42:52;;;;;;;;;;;;;;;7.25;73.47;97625.29;115688;1197;28252;-82
2021/10/28 00:45:26;;;;;;;8.80;5.50;;;;;;;7.24;73.37;97626.64;115681;1197;28373;-82
2021/10/28 00:47:56;;;;;;;8.70;5.60;;;;;;;7.25;73.41;97628.81;115573;1198;29839;-81
2021/10/28 00:50:26;;;;;;;;;;;;;;;7.27;73.59;97625.05;115728;1190;28553;-81
2021/10/28 00:52:57;;;;;;;10.80;6.10;;;;;;;7.28;73.31;97629.52;115547;1198;30103;-82
2021/10/28 00:55:28;;;;;;;10.90;6.30;;;;;;;7.27;73.56;97631.92;115563;1198;28943;-81
2021/10/28 00:57:59;;;;;;;12.40;6.40;;;;;;;7.30;73.43;97624.12;115559;1199;24566;-82
2021/10/28 01:00:29;;;;;;;12.10;6.10;;;;;;;7.28;73.62;97621.23;115445;1199;26484;-82
2021/10/28 01:03:00;;;;;;;10.00;6.00;;;;;;;7.30;73.80;97614.51;115563;1199;25443;-81
2021/10/28 01:05:32;;;;;;;10.30;5.90;;;;;;;7.31;73.90;97613.02;115466;1199;29185;-80
2021/10/28 01:08:02;;;;;;;10.30;6.20;;;;;;;7.28;73.68;97610.83;115506;1199;28754;-81
2021/10/28 01:10:31;;;;;;;;;;;;;;;7.15;73.63;97610.66;115525;1198;40392;-80
2021/10/28 01:13:02;;;;;;;11.80;5.80;;;;;;;7.07;73.94;97613.33;115503;1199;26350;-80
2021/10/28 01:15:31;;;;;;;;;;;;;;;6.99;73.97;97611.02;115507;1198;27601;-80
2021/10/28 01:18:02;;;;;;;9.50;5.90;;;;;;;6.88;74.18;97611.39;115511;1198;25884;-80
2021/10/28 01:20:33;;;;;;;11.40;6.30;;;;;;;6.79;74.15;97611.27;115468;1199;26582;-80
2021/10/28 01:23:04;;;;;;;12.60;6.30;;;;;;;6.74;74.42;97611.71;115507;1198;30384;-80
2021/10/28 01:25:36;;;;;;;11.30;6.00;;;;;;;6.71;74.63;97615.40;115558;1198;29379;-81
2021/10/28 01:28:07;;;;;;;12.40;6.70;;;;;;;6.70;74.61;97618.27;115533;1198;34408;-81
2021/10/28 01:30:38;;;;;;;8.80;5.80;;;;;;;6.73;74.69;97616.74;115513;1191;28147;-81
2021/10/28 01:33:09;;;;;;;11.00;6.10;;;;;;;6.77;74.59;97616.49;115509;1198;27307;-81
2021/10/28 01:35:40;;;;;;;9.80;6.00;;;;;;;6.81;74.85;97615.64;115533;1198;37744;-81
2021/10/28 01:38:12;;;;;;;12.30;6.70;;;;;;;6.88;75.03;97614.25;115494;1199;27149;-81
2021/10/28 01:40:52;;;;;;;10.10;6.10;;;;;;;6.95;75.20;97615.00;115508;1198;27593;-81
2021/10/28 01:43:23;;;;;;;11.20;5.90;;;;;;;6.96;75.02;97617.13;115510;1198;31975;-81
2021/10/28 01:45:54;;;;;;;9.90;6.40;;;;;;;6.98;75.00;97617.90;115504;1199;29119;-81
2021/10/28 01:48:26;;;;;;;8.80;6.00;;;;;;;7.02;75.15;97617.09;115490;1198;27796;-81
2021/10/28 01:50:57;;;;;;;10.20;6.30;;;;;;;7.04;75.02;97609.58;115475;1199;30489;-81
2021/10/28 01:53:29;;;;;;;13.20;7.20;;;;;;;7.05;75.14;97608.90;115543;1199;28774;-81
2021/10/28 01:55:59;;;;;;;9.00;6.10;;;;;;;7.06;75.18;97606.29;115607;1198;29258;-80
2021/10/28 01:58:29;;;;;;;;;;;;;;;7.04;74.95;97601.58;115605;1192;27585;-81
2021/10/28 02:01:00;;;;;;;11.60;6.50;;;;;;;7.02;75.00;97601.75;115554;1199;28526;-82
2021/10/28 02:03:31;;;;;;;10.10;6.40;;;;;;;7.03;75.04;97602.14;115589;1198;26360;-82
2021/10/28 02:06:02;;;;;;;10.80;6.00;;;;;;;7.00;74.86;97598.70;115459;1198;32541;-80
2021/10/28 02:08:33;;;;;;;10.40;6.00;;;;;;;6.99;74.73;97595.29;115471;1199;32101;-80
2021/10/28 02:11:03;;;;;;;8.80;5.80;;;;;;;6.99;74.81;97594.72;115515;1193;27155;-80
2021/10/28 02:13:34;;;;;;;11.70;6.60;;;;;;;7.02;75.07;97589.42;115493;1198;41852;-80
2021/10/28 02:16:06;;;;;;;11.50;6.30;;;;;;;7.09;75.06;97583.55;115498;1199;50716;-80
2021/10/28 02:18:36;;;;;;;13.30;6.30;;;;;;;7.13;74.99;97583.42;115443;1199;25833;-81
2021/10/28 02:21:07;;;;;;;10.60;6.30;;;;;;;7.15;75.15;97580.18;115632;1184;25609;-81
2021/10/28 02:23:38;;;;;;;10.50;6.00;;;;;;;7.14;75.08;97580.12;115636;1196;26129;-81
2021/10/28 02:26:09;;;;;;;12.00;6.90;;;;;;;7.14;75.08;97577.16;115645;1198;31147;-80
2021/10/28 02:28:40;;;;;;;11.20;6.40;;;;;;;7.13;75.11;97580.42;115654;1198;29115;-81
2021/10/28 02:31:11;;;;;;;11.70;6.20;;;;;;;7.13;74.96;97579.61;115569;1198;25779;-80
2021/10/28 02:33:42;;;;;;;13.70;6.80;;;;;;;7.12;74.90;97583.08;115596;1198;28059;-81
2021/10/28 02:36:13;;;;;;;7.90;5.40;;;;;;;7.12;74.92;97579.23;115422;1184;29149;-82
2021/10/28 02:38:44;;;;;;;11.50;6.60;;;;;;;7.10;74.87;97582.15;115445;1199;29391;-81
2021/10/28 02:41:15;;;;;;;10.40;6.00;;;;;;;7.07;74.78;97584.57;115494;1198;30414;-82
2021/10/28 02:43:46;;;;;;;11.80;6.50;;;;;;;7.03;74.69;97586.50;115477;1198;29539;-81
2021/10/28 02:46:17;;;;;;;9.30;6.30;;;;;;;7.02;74.87;97589.55;115561;1198;28144;-80
2021/10/28 02:48:48;;;;;;;11.30;6.40;;;;;;;7.00;74.96;97592.67;115669;1198;25345;-81
2021/10/28 02:51:19;;;;;;;12.20;6.40;;;;;;;6.98;74.82;97593.70;115656;1198;28191;-81
2021/10/28 02:53:49;;;;;;;10.70;6.30;;;;;;;6.93;75.06;97598.41;115619;1198;26139;-82
2021/10/28 02:56:21;;;;;;;10.40;6.50;;;;;;;6.90;74.80;97596.59;115582;1198;85121;-81
2021/10/28 02:58:52;;;;;;;12.70;6.80;;;;;;;6.89;74.91;97593.08;115661;1198;34278;-82
2021/10/28 03:01:23;;;;;;;11.60;6.80;;;;;;;6.88;74.94;97596.05;115663;1198;28796;-81
2021/10/28 03:03:52;;;;;;;;;;;;;;;6.86;75.10;97597.59;115631;1198;28271;-81
2021/10/28 03:06:23;;;;;;;12.00;6.60;;;;;;;6.83;75.19;97599.39;115455;1199;30018;-82
2021/10/28 03:08:53;;;;;;;11.00;6.40;;;;;;;6.82;75.13;97596.24;115672;1198;28894;-82
2021/10/28 03:11:24;;;;;;;12.20;7.10;;;;;;;6.80;75.33;97595.79;115600;1198;33661;-82
2021/10/28 03:13:55;;;;;;;11.90;6.30;;;;;;;6.79;75.37;97594.72;115419;1199;56928;-81
2021/10/28 03:16:29;;;;;;;;;;;;;;;6.78;75.29;97596.44;115596;1198;30306;-81
2021/10/28 03:19:25;;;;;;;10.40;6.10;;;;;;;6.77;75.29;97599.41;115736;1191;27709;-81
2021/10/28 03:27:34;;;;;;;13.10;7.00;;;;;;;6.70;75.69;97603.30;115669;1192;29768;-81
2021/10/28 03:30:06;;;;;;;12.30;7.50;;;;;;;6.67;75.81;97605.39;115614;1198;28658;-80
2021/10/28 03:32:38;;;;;;;13.10;6.20;;;;;;;6.64;75.87;97607.34;115606;1198;31752;-81
2021/10/28 03:35:12;;;;;;;12.60;6.80;;;;;;;6.63;75.94;97603.31;115635;1198;27475;-81
2021/10/28 03:37:46;;;;;;;11.60;5.80;;;;;;;6.64;76.01;97608.37;115669;1198;27630;-83
2021/10/28 03:40:31;;;;;;;9.70;5.30;;;;;;;6.64;76.03;97613.59;115645;1192;26933;-82
2021/10/28 03:43:37;;;;;;;9.40;6.20;;;;;;;6.63;76.17;97616.33;115564;1198;26791;-80
2021/10/28 03:55:43;;;;;;;10.90;5.80;;;;;;;6.70;75.95;97620.69;114877;1202;31319;-81
2021/10/28 04:04:38;;;;;;;12.10;5.70;;;;;;;6.77;76.09;97628.25;115659;1197;27354;-82
2021/10/28 04:07:26;;;;;;;10.30;6.00;;;;;;;6.77;75.90;97632.27;115668;1197;24481;-81
2021/10/28 04:29:54;;;;;;;8.40;4.70;;;;;;;6.79;75.46;97638.99;115640;1198;24911;-81
2021/10/28 04:32:25;;;;;;;9.00;4.80;;;;;;;6.78;75.59;97640.88;115617;1198;29264;-81
2021/10/28 04:34:54;;;;;;;;;;;;;;;6.80;75.41;97640.52;115665;1198;29252;-81
2021/10/28 04:37:25;;;;;;;9.00;5.20;;;;;;;6.81;75.46;97642.98;115546;1199;29989;-81
2021/10/28 04:39:56;;;;;;;8.70;5.00;;;;;;;6.82;75.52;97641.73;115601;1198;26439;-81
2021/10/28 04:42:25;;;;;;;;;;;;;;;6.84;75.51;97643.15;115727;1198;24991;-81
2021/10/28 04:44:56;;;;;;;9.90;4.90;;;;;;;6.87;75.41;97641.20;115647;1198;35324;-81
2021/10/28 04:47:27;;;;;;;8.50;5.20;;;;;;;6.87;75.13;97645.90;115738;1198;37212;-81
2021/10/28 04:49:57;;;;;;;7.10;4.60;;;;;;;6.85;75.16;97644.80;115719;1198;28212;-81
2021/10/28 04:52:28;;;;;;;9.40;5.20;;;;;;;6.83;75.32;97644.34;115714;1198;26844;-81
2021/10/28 04:54:57;;;;;;;;;;;;;;;6.82;75.16;97647.75;115745;1198;34102;-81
2021/10/28 04:57:28;;;;;;;10.80;4.90;;;;;;;6.82;75.27;97645.31;115589;1198;30546;-81
2021/10/28 05:00:01;;;;;;;9.00;5.30;;;;;;;6.83;75.31;97640.83;115704;1198;28763;-81
2021/10/28 05:02:33;;;;;;;9.50;5.30;;;;;;;6.85;75.35;97642.85;115722;1196;28378;-80
2021/10/28 05:05:05;;;;;;;9.60;5.40;;;;;;;6.85;75.06;97647.29;115743;1196;33218;-81
2021/10/28 05:07:36;;;;;;;7.90;5.00;;;;;;;6.88;75.28;97644.14;115745;1196;27708;-80
2021/10/28 05:10:08;;;;;;;10.60;5.20;;;;;;;6.91;75.08;97646.80;115681;1197;32159;-80
2021/10/28 05:12:39;;;;;;;9.10;5.00;;;;;;;6.93;75.18;97647.16;115665;1195;65162;-81
2021/10/28 05:15:09;;;;;;;;;;;;;;;6.92;75.02;97647.45;115726;1196;24987;-81
2021/10/28 05:17:40;;;;;;;9.30;5.10;;;;;;;6.93;75.03;97653.80;115679;1196;30495;-79
2021/10/28 05:20:12;;;;;;;10.80;5.60;;;;;;;6.94;74.88;97655.41;115743;1190;28174;-81
2021/10/28 05:22:43;;;;;;;9.30;5.30;;;;;;;6.93;74.88;97653.28;115729;1195;28641;-81
2021/10/28 05:25:14;;;;;;;8.80;5.40;;;;;;;6.92;74.90;97651.20;115721;1196;29692;-82
2021/10/28 05:27:44;;;;;;;10.10;6.00;;;;;;;6.94;74.83;97650.34;115654;1183;25585;-81
2021/10/28 05:30:14;;;;;;;;;;;;;;;6.94;75.02;97647.50;115708;1196;28298;-81
2021/10/28 05:32:45;;;;;;;10.10;5.40;;;;;;;6.95;74.74;97651.21;115701;1190;31609;-81
2021/10/28 05:35:17;;;;;;;10.40;6.00;;;;;;;6.95;74.85;97648.78;115717;1197;27203;-81
2021/10/28 05:37:48;;;;;;;9.30;5.50;;;;;;;6.97;74.72;97654.30;115673;1197;27179;-80
2021/10/28 05:40:19;;;;;;;7.80;4.70;;;;;;;6.97;74.60;97648.26;115676;1184;32096;-81
2021/10/28 05:42:52;;;;;;;7.90;5.20;;;;;;;7.02;74.52;97651.70;115665;1197;33194;-80
2021/10/28 05:45:23;;;;;;;9.10;5.70;;;;;;;7.37;74.91;97655.20;115660;1183;36315;-81
2021/10/28 05:47:53;;;;;;;6.30;4.30;;;;;;;7.88;74.50;97657.45;115698;1190;28646;-81
2021/10/28 05:50:25;;;;;;;9.80;5.40;;;;;;;8.36;73.98;97657.70;115593;1196;36772;-82
2021/10/28 05:52:57;;;;;;;8.20;5.20;;;;;;;8.82;73.11;97655.92;115661;1197;34700;-81
2021/10/28 05:55:28;;;;;;;6.90;4.50;;;;;;;9.27;72.20;97656.48;115510;1197;39651;-81
2021/10/28 05:57:59;;;;;;;10.10;5.10;;;;;;;9.68;71.18;97656.80;115725;1197;29245;-82
2021/10/28 06:00:30;;;;;;;7.40;5.00;;;;;;;10.14;71.00;97657.66;115742;1197;26828;-82
2021/10/28 06:03:00;;;;;;;6.60;4.40;;;;;;;10.60;70.12;97658.48;115679;1197;26411;-78
2021/10/28 06:05:31;;;;;;;;;;;;;;;11.06;69.37;97655.55;115640;1198;27534;-80
2021/10/28 06:08:01;;;;;;;6.50;4.80;;;;;;;11.51;68.45;97656.30;115684;1196;32310;-80
2021/10/28 06:10:31;;;;;;;;;;;;;;;12.07;68.08;97660.31;115700;1197;29158;-81
2021/10/28 06:13:02;;;;;;;7.50;4.70;;;;;;;12.49;66.72;97664.35;115645;1196;27303;-81
2021/10/28 06:15:35;;;;;;;7.40;4.70;;;;;;;12.77;65.64;97666.08;115636;1189;72594;-81
2021/10/28 06:18:34;;;;;;;6.40;3.90;;;;;;;12.93;64.54;97667.52;115595;1197;38118;-81
2021/10/28 06:21:04;;;;;;;6.80;4.40;;;;;;;13.16;63.19;97667.98;115709;1193;29195;-81
2021/10/28 06:23:35;;;;;;;6.90;3.70;;;;;;;13.26;62.14;97669.80;115710;1197;25482;-81
2021/10/28 06:26:06;;;;;;;9.40;5.00;;;;;;;13.21;61.17;97670.42;115608;1197;30493;-81
2021/10/28 06:28:37;;;;;;;7.40;4.20;;;;;;;13.42;61.34;97671.30;115593;1198;36712;-81
2021/10/28 06:31:08;;;;;;;6.50;4.20;;;;;;;13.59;60.48;97673.30;115698;1196;29145;-81
2021/10/28 06:33:46;;;;;;;8.70;4.20;;;;;;;14.06;60.56;97670.91;115694;1196;39179;-82
2021/10/28 06:36:19;;;;;;;7.80;4.80;;;;;;;14.19;58.29;97669.09;115747;1183;26953;-81
2021/10/28 06:38:50;;;;;;;6.50;4.60;;;;;;;14.28;58.14;97670.75;115643;1196;28694;-82
2021/10/28 06:41:21;;;;;;;5.70;4.10;;;;;;;14.46;57.81;97673.65;115643;1197;32220;-81
2021/10/28 06:43:52;;;;;;;5.90;4.00;;;;;;;14.68;57.73;97674.58;115603;1190;31375;-82
2021/10/28 06:46:21;;;;;;;;;;;;;;;15.21;57.47;97672.85;115682;1190;30958;-82
2021/10/28 06:48:52;;;;;;;8.00;4.20;;;;;;;15.66;56.47;97668.14;115700;1197;28946;-82
2021/10/28 06:51:23;;;;;;;5.90;3.70;;;;;;;15.71;55.60;97669.75;115555;1197;36955;-82
2021/10/28 06:54:01;;;;;;;4.70;3.60;;;;;;;15.85;54.43;97668.23;115668;1197;28460;-81
2021/10/28 06:56:57;;;;;;;8.60;3.90;;;;;;;15.70;52.99;97669.43;115666;1192;25382;-80
2021/10/28 07:02:35;;;;;;;5.10;3.80;;;;;;;15.27;52.57;97670.55;115200;1201;37025;-81
2021/10/28 07:05:07;;;;;;;6.20;3.70;;;;;;;15.28;52.76;97666.96;115535;1197;38596;-80
2021/10/28 07:07:40;;;;;;;6.50;3.80;;;;;;;15.45;53.27;97669.20;115752;1196;26411;-81
2021/10/28 07:10:15;;;;;;;7.00;3.90;;;;;;;15.65;51.93;97669.00;115722;1189;31826;-81
2021/10/28 07:12:52;;;;;;;7.10;4.30;;;;;;;15.40;51.70;97668.44;115716;1196;27624;-81
2021/10/28 07:15:29;;;;;;;5.40;3.50;;;;;;;14.97;51.44;97668.26;115681;1197;28106;-82
2021/10/28 07:18:08;;;;;;;6.90;4.10;;;;;;;14.88;52.74;97668.17;115738;1196;28328;-82
2021/10/28 07:20:59;;;;;;;7.20;4.60;;;;;;;15.17;52.82;97665.56;115776;1190;28929;-81
2021/10/28 07:26:42;;;;;;;5.50;3.70;;;;;;;15.23;52.58;97660.89;115555;1197;29176;-81
2021/10/28 07:35:32;;;;;;;6.10;3.60;;;;;;;15.14;51.48;97660.04;115499;1199;24816;-82
2021/10/28 08:15:16;;;;;;;5.40;3.50;;;;;;;13.59;53.59;97650.90;115662;1196;29211;-80
2021/10/28 08:18:01;;;;;;;5.40;3.70;;;;;;;13.60;54.23;97646.80;115701;1196;26731;-82
2021/10/28 08:20:59;;;;;;;6.70;4.10;;;;;;;13.64;54.19;97650.07;115700;1194;27724;-82
2021/10/28 08:23:36;;;;;;;5.70;4.20;;;;;;;13.61;54.32;97646.42;115717;1196;36674;-82
2021/10/28 08:28:58;;;;;;;9.00;4.90;;;;;;;13.44;54.46;97644.92;115757;1189;29583;-82
2021/10/28 08:31:29;;;;;;;8.00;4.80;;;;;;;13.40;54.55;97645.80;115735;1197;25451;-82
2021/10/28 08:34:00;;;;;;;8.60;4.70;;;;;;;13.33;54.62;97639.79;115796;1196;24385;-83
2021/10/28 08:36:37;;;;;;;9.20;4.40;;;;;;;13.29;54.91;97630.91;115754;1183;26121;-82
2021/10/28 08:39:08;;;;;;;8.80;4.50;;;;;;;13.25;54.96;97630.33;115697;1197;29904;-81
2021/10/28 08:41:40;;;;;;;8.10;5.40;;;;;;;13.11;54.99;97632.30;115635;1198;29827;-82
2021/10/28 08:44:13;;;;;;;9.30;4.60;;;;;;;12.94;55.27;97633.86;115708;1197;28978;-82
2021/10/28 08:46:46;;;;;;;6.70;4.50;;;;;;;12.89;55.71;97631.95;115648;1197;33751;-82
2021/10/28 08:49:21;;;;;;;6.90;3.90;;;;;;;12.91;56.09;97622.36;115701;1196;26174;-81
2021/10/28 08:52:06;;;;;;;6.60;4.20;;;;;;;12.92;56.00;97619.05;115765;1190;26619;-81
2021/10/28 08:57:52;;;;;;;7.70;4.70;;;;;;;12.84;56.42;97612.11;115744;1196;37712;-83
2021/10/28 09:24:10;;;;;;;9.00;5.20;;;;;;;13.24;56.52;97606.68;115734;1196;31175;-82
2021/10/28 09:26:51;;;;;;;8.90;4.70;;;;;;;13.34;56.23;97605.95;115710;1196;29465;-82
2021/10/28 09:29:34;;;;;;;8.10;4.80;;;;;;;13.43;56.04;97601.69;115642;1196;29959;-82
2021/10/28 09:32:24;;;;;;;8.40;4.80;;;;;;;13.51;55.89;97596.90;115641;1197;31063;-81
2021/10/28 09:43:54;;;;;;;10.10;6.10;;;;;;;13.75;54.99;97586.94;115685;1196;29226;-82
2021/10/28 09:46:41;;;;;;;8.50;5.10;;;;;;;13.76;55.09;97586.60;115664;1197;27844;-82
2021/10/28 09:52:04;;;;;;;8.60;5.30;;;;;;;13.95;54.95;97580.38;115701;1197;31181;-82
2021/10/28 09:54:47;;;;;;;7.60;4.50;;;;;;;14.03;54.85;97577.45;115744;1197;28224;-81
2021/10/28 10:00:44;;;;;;;7.30;4.70;;;;;;;14.17;54.05;97585.45;115272;1198;87761;-82
2021/10/28 10:03:22;;;;;;;6.20;4.00;;;;;;;14.22;53.93;97582.13;115711;1197;36684;-82
2021/10/28 10:05:59;;;;;;;8.00;4.40;;;;;;;14.28;53.77;97578.58;115766;1196;28367;-81
2021/10/28 10:08:31;;;;;;;7.50;4.50;;;;;;;14.32;53.59;97578.95;115825;1197;24572;-82
2021/10/28 10:11:02;;;;;;;8.90;4.90;;;;;;;14.38;53.47;97577.21;115697;1190;25901;-80
2021/10/28 10:13:33;;;;;;;7.10;4.00;;;;;;;14.46;53.18;97576.64;115707;1196;28174;-81
2021/10/28 10:16:05;;;;;;;6.80;3.70;;;;;;;14.55;53.16;97569.58;115709;1196;28320;-82
2021/10/28 10:18:39;;;;;;;8.40;4.90;;;;;;;14.60;52.90;97567.45;115667;1197;30324;-82
2021/10/28 10:21:15;;;;;;;7.40;4.10;;;;;;;14.61;52.86;97564.61;115676;1196;27752;-83
2021/10/28 10:24:18;;;;;;;5.40;3.80;;;;;;;14.60;52.62;97560.56;115695;1197;31516;-82
2021/10/28 11:25:45;;;;;;;3.60;2.60;;;;;;;15.63;48.54;97514.54;115789;1197;67818;-83
2021/10/28 12:43:50;;;;;;;7.20;2.00;;;;;;;16.93;43.66;97443.35;115687;1191;29579;-82
2021/10/28 12:46:28;;;;;;;4.20;2.30;;;;;;;16.81;43.81;97444.66;115655;1197;28645;-84
2021/10/28 12:49:35;;;;;;;3.60;2.20;;;;;;;16.74;44.31;97443.02;115721;1197;59685;-82
2021/10/28 13:37:55;;;;;;;10.10;5.50;;;;;;;16.66;47.52;97421.96;115585;1197;25578;-84
2021/10/28 13:48:58;;;;;;;8.00;4.50;;;;;;;16.50;48.22;97420.70;115658;1197;25432;-83
2021/10/28 13:51:39;;;;;;;8.10;4.50;;;;;;;16.45;48.13;97422.70;115763;1197;26741;-82
2021/10/28 13:57:20;;;;;;;9.10;4.50;;;;;;;16.35;48.50;97418.78;115684;1197;29494;-83
2021/10/28 14:34:28;;;;;;;10.10;5.30;;;;;;;15.25;52.66;97409.20;115640;1197;31317;-83
2021/10/28 15:03:05;;;;;;;11.60;6.40;;;;;;;13.93;55.43;97417.88;115676;1197;25159;-82
2021/10/28 15:28:13;;;;;;;11.20;7.30;;;;;;;12.62;58.83;97417.44;115627;1197;25949;-82
2021/10/28 15:36:41;;;;;;;236.00;92.50;;;;;;;12.39;59.31;97421.81;115671;1184;27173;-82
2021/10/28 15:39:23;;;;;;;38.50;19.20;;;;;;;12.31;59.89;97419.80;115640;1197;31703;-83
2021/10/28 15:53:40;;;;;;;14.00;8.00;;;;;;;11.93;60.49;97418.15;115649;1197;31419;-82
2021/10/28 15:56:38;;;;;;;12.70;7.60;;;;;;;11.88;60.52;97415.45;115694;1198;30310;-82
2021/10/28 16:21:54;;;;;;;15.80;8.30;;;;;;;10.81;62.33;97411.14;115631;1197;34009;-82
2021/10/28 16:24:27;;;;;;;12.50;7.80;;;;;;;10.61;62.99;97412.00;115610;1198;37420;-82
2021/10/28 16:26:59;;;;;;;14.60;7.60;;;;;;;10.36;63.30;97415.91;115663;1197;25899;-82
2021/10/28 16:29:30;;;;;;;45.80;25.70;;;;;;;10.29;63.56;97417.84;115696;1198;25481;-83
2021/10/28 16:32:02;;;;;;;45.70;27.80;;;;;;;10.34;63.81;97417.64;115730;1193;27004;-83
2021/10/28 16:34:33;;;;;;;26.90;15.90;;;;;;;10.43;63.83;97413.55;115642;1197;30095;-81
2021/10/28 16:37:06;;;;;;;16.40;10.20;;;;;;;10.47;63.65;97417.88;115726;1197;28835;-81
2021/10/28 16:39:38;;;;;;;15.90;9.00;;;;;;;10.35;63.57;97415.64;115685;1197;40295;-83
2021/10/28 16:42:11;;;;;;;18.60;9.40;;;;;;;10.32;63.98;97419.27;115693;1196;29761;-82
2021/10/28 16:44:44;;;;;;;11.60;7.60;;;;;;;10.23;64.51;97420.00;115720;1197;26692;-83
2021/10/28 16:47:17;;;;;;;17.40;8.00;;;;;;;10.00;65.08;97417.66;115607;1192;30444;-82
2021/10/28 16:49:49;;;;;;;12.90;6.80;;;;;;;9.81;65.33;97421.64;115628;1184;27441;-83
2021/10/28 16:52:21;;;;;;;12.50;7.60;;;;;;;9.84;65.89;97415.56;115711;1197;28550;-83
2021/10/28 16:54:55;;;;;;;11.50;6.60;;;;;;;9.88;66.35;97417.04;115654;1197;28311;-83
2021/10/28 16:57:26;;;;;;;14.20;7.60;;;;;;;9.93;66.43;97418.67;115669;1190;32461;-83
2021/10/28 16:59:58;;;;;;;18.60;11.10;;;;;;;10.01;66.45;97416.25;115648;1198;28890;-83
2021/10/28 17:02:34;;;;;;;14.90;10.40;;;;;;;10.01;66.11;97413.92;115797;1196;25447;-83
2021/10/28 17:05:07;;;;;;;16.70;9.50;;;;;;;9.99;65.79;97413.20;115693;1197;27226;-82
2021/10/28 17:07:39;;;;;;;14.20;9.00;;;;;;;9.99;65.80;97416.64;115639;1198;31524;-82
2021/10/28 17:10:11;;;;;;;15.40;7.80;;;;;;;9.88;65.56;97413.92;115607;1198;35631;-83
2021/10/28 17:12:42;;;;;;;18.00;8.80;;;;;;;9.72;66.01;97415.16;115629;1198;35862;-83
2021/10/28 17:15:15;;;;;;;13.60;6.70;;;;;;;9.52;66.41;97412.71;115606;1198;26808;-82
2021/10/28 17:17:46;;;;;;;18.20;9.80;;;;;;;9.45;66.79;97408.21;115587;1198;42761;-82
2021/10/28 17:20:19;;;;;;;21.10;10.70;;;;;;;9.38;66.97;97410.73;115667;1197;28210;-82
2021/10/28 17:22:52;;;;;;;12.10;7.20;;;;;;;9.25;67.60;97411.41;115644;1198;26546;-82
2021/10/28 17:25:26;;;;;;;12.20;7.40;;;;;;;9.14;68.28;97409.71;115620;1197;31071;-83
2021/10/28 17:27:57;;;;;;;13.50;7.30;;;;;;;9.16;68.57;97409.37;115664;1198;28788;-83
2021/10/28 17:30:29;;;;;;;13.60;8.40;;;;;;;9.20;68.43;97411.58;115746;1197;27695;-83
2021/10/28 17:33:00;;;;;;;16.30;8.50;;;;;;;9.26;68.15;97410.61;115785;1197;31204;-83
2021/10/28 17:35:33;;;;;;;10.90;6.30;;;;;;;9.32;67.88;97411.85;115753;1190;28879;-83
2021/10/28 17:38:05;;;;;;;14.60;6.80;;;;;;;9.31;68.02;97405.65;115578;1197;29753;-82
2021/10/28 17:40:36;;;;;;;9.70;5.70;;;;;;;9.31;68.46;97404.59;115649;1197;31504;-82
2021/10/28 17:43:11;;;;;;;11.30;6.10;;;;;;;9.37;68.43;97408.30;115737;1197;23599;-82
2021/10/28 17:45:44;;;;;;;15.70;7.60;;;;;;;9.35;68.35;97404.94;115662;1194;26884;-82
2021/10/28 17:48:18;;;;;;;14.10;7.40;;;;;;;9.38;68.90;97399.89;115631;1197;26949;-82
2021/10/28 17:50:49;;;;;;;15.00;7.50;;;;;;;9.42;68.45;97400.25;115629;1197;29341;-82
2021/10/28 17:53:21;;;;;;;14.20;7.40;;;;;;;9.32;68.61;97398.68;115719;1197;24470;-82
2021/10/28 17:55:52;;;;;;;14.30;8.30;;;;;;;9.42;69.22;97397.59;115666;1190;28480;-82
2021/10/28 17:58:24;;;;;;;14.20;7.60;;;;;;;9.60;68.87;97398.70;115624;1198;28535;-81
2021/10/28 18:01:02;;;;;;;14.60;7.60;;;;;;;9.71;68.53;97400.48;115682;1193;42816;-82
2021/10/28 18:03:35;;;;;;;17.00;8.00;;;;;;;9.79;68.35;97395.41;115605;1198;43386;-81
2021/10/28 18:06:07;;;;;;;10.80;7.20;;;;;;;9.81;68.08;97397.02;115623;1197;33276;-82
2021/10/28 18:08:42;;;;;;;13.40;8.80;;;;;;;9.81;67.89;97395.64;115696;1197;28856;-82
2021/10/28 18:11:14;;;;;;;18.70;10.80;;;;;;;9.79;67.75;97394.94;115668;1184;29527;-82
2021/10/28 18:13:45;;;;;;;17.70;10.90;;;;;;;9.70;67.73;97394.51;115640;1197;28077;-82
2021/10/28 18:16:16;;;;;;;20.30;11.40;;;;;;;9.62;67.66;97392.33;115673;1197;30264;-82
2021/10/28 18:18:47;;;;;;;14.00;8.10;;;;;;;9.55;67.72;97390.30;115664;1197;25732;-83
2021/10/28 18:21:19;;;;;;;14.90;8.70;;;;;;;9.50;67.68;97388.83;115622;1197;34089;-82
2021/10/28 18:23:50;;;;;;;20.10;9.90;;;;;;;9.52;67.71;97385.19;115677;1197;26417;-81
2021/10/28 18:26:24;;;;;;;17.10;9.20;;;;;;;9.54;67.75;97385.73;115657;1197;26469;-83
2021/10/28 18:28:57;;;;;;;16.60;8.70;;;;;;;9.61;67.99;97384.00;115720;1190;28344;-81
2021/10/28 18:31:29;;;;;;;15.30;8.20;;;;;;;9.63;67.81;97380.10;115733;1197;29611;-82
2021/10/28 18:34:00;;;;;;;15.10;8.30;;;;;;;9.64;67.89;97384.02;115652;1198;29251;-82
2021/10/28 18:36:34;;;;;;;15.10;8.10;;;;;;;9.69;67.86;97384.84;115702;1198;28275;-81
2021/10/28 18:39:13;;;;;;;13.70;7.50;;;;;;;9.70;67.65;97383.53;115616;1197;31932;-82
2021/10/28 18:41:47;;;;;;;16.00;8.70;;;;;;;9.69;67.65;97379.17;115631;1190;34534;-82
2021/10/28 18:44:18;;;;;;;13.10;7.40;;;;;;;9.68;67.59;97374.19;115638;1190;30496;-82
2021/10/28 18:46:50;;;;;;;12.50;7.00;;;;;;;9.68;67.48;97371.02;115678;1196;27714;-82
2021/10/28 18:49:22;;;;;;;12.50;6.80;;;;;;;9.69;67.60;97369.11;115674;1197;26889;-82
2021/10/28 18:51:56;;;;;;;12.30;6.90;;;;;;;9.68;67.43;97365.73;115550;1192;31152;-82
2021/10/28 18:54:27;;;;;;;14.00;6.70;;;;;;;9.67;67.40;97364.39;115641;1198;32852;-82
2021/10/28 18:57:01;;;;;;;11.50;6.50;;;;;;;9.70;67.43;97363.35;115671;1194;31616;-82
2021/10/28 18:59:35;;;;;;;12.90;6.60;;;;;;;9.72;67.25;97366.09;115725;1197;27816;-82
2021/10/28 19:02:06;;;;;;;11.70;6.30;;;;;;;9.74;67.27;97365.26;115677;1197;29700;-81
2021/10/28 19:04:38;;;;;;;12.60;6.50;;;;;;;9.77;67.19;97365.21;115595;1198;31283;-81
2021/10/28 19:07:15;;;;;;;12.70;6.60;;;;;;;9.78;67.12;97366.23;115567;1184;38109;-82
2021/10/28 19:09:46;;;;;;;11.10;6.30;;;;;;;9.80;67.09;97362.95;115613;1198;29044;-82
2021/10/28 19:12:18;;;;;;;12.10;6.60;;;;;;;9.85;67.01;97365.21;115581;1199;28791;-81
2021/10/28 19:14:49;;;;;;;11.70;6.50;;;;;;;9.86;66.98;97365.17;115620;1199;30449;-83
2021/10/28 19:17:20;;;;;;;12.80;6.50;;;;;;;9.85;66.92;97364.41;115586;1198;33530;-83
2021/10/28 19:19:51;;;;;;;10.40;5.90;;;;;;;9.82;66.94;97358.99;115606;1198;28759;-82
2021/10/28 19:22:29;;;;;;;13.30;6.80;;;;;;;9.81;67.05;97360.63;115640;1197;26780;-82
2021/10/28 19:25:06;;;;;;;12.50;6.60;;;;;;;9.81;67.01;97362.58;115663;1198;26406;-82
2021/10/28 19:27:39;;;;;;;10.20;6.10;;;;;;;9.82;66.98;97364.55;115536;1192;37415;-81
2021/10/28 19:30:24;;;;;;;11.30;6.80;;;;;;;9.80;66.99;97361.99;115547;1198;50514;-81
2021/10/28 19:32:58;;;;;;;13.50;7.10;;;;;;;9.79;66.93;97359.14;115654;1193;31138;-81
2021/10/28 19:35:32;;;;;;;11.50;6.60;;;;;;;9.80;67.01;97359.14;115709;1198;24642;-83
2021/10/28 19:38:13;;;;;;;11.40;6.50;;;;;;;9.81;67.01;97360.58;115619;1198;29155;-82
2021/10/28 19:41:00;;;;;;;13.20;7.30;;;;;;;9.80;67.00;97349.55;115640;1198;28246;-81